Minot, ND (58701)

1:24 PM CST on February 13, 2016 (GMT -0600)
Dakota Park South Minot | | Change Station
CLOSE
Current Station
Personal Weather Station
Location: Minot, ND
Elevation: 1750 ft
Nearby Weather Stations
Active Advisory: Winter Weather Advisory

Elev 1750 ft 48.20 °N, 101.31 °W | Updated 5 seconds ago

Overcast
Overcast
13.6 °F
Feels Like -4 °F
N
19.0
Wind Variable Wind from SE
Gusts 20.6 mph

Today
High -- | Low -- °F
--% Chance of Precip.
Yesterday
High -- | Low -- °F
Precip. -- in
Pressure 30.14 in
Visibility 10.0 miles
Clouds Overcast 1900 ft
Windchill -4 °F
Dew Point 5 °F
Humidity 67%
Rainfall 0.00 in
Snow Depth Not available.
7:56 AM 6:03 PM
Waxing Crescent, 33% visible
METAR KMOT 131854Z 14015G22KT 10SM OVC019 M08/M15 A3002 RMK AO2 PK WND 13026/1800 SLP205 T10831150
Pressure 30.14 in
Visibility 10.0 miles
Clouds Overcast 1900 ft
Windchill -4 °F
Dew Point 5 °F
Humidity 67%
Rainfall 0.00 in
Snow Depth Not available.
7:56 AM 6:03 PM
Waxing Crescent, 33% visible
METAR KMOT 131854Z 14015G22KT 10SM OVC019 M08/M15 A3002 RMK AO2 PK WND 13026/1800 SLP205 T10831150

10-Day Weather Forecast

Almanac

Astronomy

Feb. 13, 2016 Rise Set
Actual Time
Civil Twilight
Nautical Twilight
Astronomical Twilight
Moon
Length of Visible Light
Length of Day
Tomorrow will be .
, % of the Moon is Illuminated

Today's Extremes

State Highs State Lows

Community

WunderPhotos

Upload Photos

1,892,642 photos uploaded!

WunderBlog® & News

Nearby

Air Quality

  Air Quality AQ Index Pollutant
Not available.

Snow Depth

Station Depth Elevation

Earthquake Activity

City Distance Mag. Time & Date
Minimum magnitude displayed is 2.5.

Coastal Water Temperatures

Place Temperature

Stations

Nearby Weather Stations

Station Location Temp. Windchill Dew Point Humidity Wind Precip. Elev Updated Type
                   

Watches & Warnings

Winter Weather Advisory
Issued: 11:03 AM MST Feb. 13, 2016 – National Weather Service

... Winter Weather Advisory remains in effect until 6 am CST /5 am
MST/ Sunday...

* expect snow to develop this afternoon and then diminish around
6 am Sunday.

* The heaviest snowfall rates will occur between 6 PM this evening
and midnight tonight.

* Total snow accumulations of 2 to 5 inches... with localized
amounts up to 6 inches are expected.

* Winds gusting as high as 35 mph will cause patchy blowing and
drifting snow. In addition... some reductions to visibility
are expected.

Precautionary/preparedness actions...

A Winter Weather Advisory means that periods of snow... sleet or
freezing rain will cause travel difficulties. Be prepared for
slippery roads and limited visibilities... and use caution while
driving. The latest Road conditions for the state you are calling
from can be obtained by calling 5 1 1.


Zh/jjs